createdAt,value
2023-05-19T00:00:56.901Z,74.66
2023-05-19T00:01:56.965Z,71.89
2023-05-19T00:02:57.022Z,71.92
2023-05-19T00:03:56.911Z,74.69
2023-05-19T00:04:56.908Z,72.64
2023-05-19T00:05:57.025Z,71.73
2023-05-19T00:06:56.921Z,72.06
2023-05-19T00:07:56.924Z,76.20
2023-05-19T00:08:56.942Z,75.88
2023-05-19T00:09:56.974Z,75.93
2023-05-19T00:10:56.967Z,74.26
2023-05-19T00:11:56.978Z,74.56
2023-05-19T00:12:56.968Z,73.82
2023-05-19T00:13:56.975Z,76.32
2023-05-19T00:14:56.969Z,73.69
2023-05-19T00:15:57.009Z,70.05
2023-05-19T00:16:56.984Z,77.81
2023-05-19T00:17:57.027Z,76.22
2023-05-19T00:18:57.085Z,75.72
2023-05-19T00:19:57.041Z,75.05
2023-05-19T00:20:57.039Z,76.91
2023-05-19T00:21:57.046Z,77.09
2023-05-19T00:22:57.054Z,76.74
2023-05-19T00:23:57.087Z,76.69
2023-05-19T00:24:57.091Z,74.16
2023-05-19T00:25:57.098Z,76.51
2023-05-19T00:26:57.116Z,77.30
2023-05-19T00:27:57.133Z,76.20
2023-05-19T00:28:57.150Z,75.71
2023-05-19T00:29:57.157Z,79.67
2023-05-19T00:30:57.220Z,77.04
2023-05-19T00:31:57.214Z,78.73
2023-05-19T00:32:57.245Z,78.98
2023-05-19T00:33:57.226Z,80.12
2023-05-19T00:34:57.241Z,73.62
2023-05-19T00:35:57.266Z,78.62
2023-05-19T00:36:57.275Z,76.59
2023-05-19T00:37:57.311Z,78.96
2023-05-19T00:38:57.335Z,77.47
2023-05-19T00:39:57.342Z,75.12
2023-05-19T00:40:57.381Z,78.32
2023-05-19T00:41:57.354Z,80.66
2023-05-19T00:42:57.523Z,78.86
2023-05-19T00:43:57.399Z,73.71
2023-05-19T00:44:57.416Z,78.98
2023-05-19T00:45:57.451Z,79.79
2023-05-19T00:46:57.473Z,77.53
2023-05-19T00:47:57.475Z,78.03
2023-05-19T00:48:57.455Z,78.93
2023-05-19T00:49:57.468Z,78.52
2023-05-19T00:50:57.490Z,79.02
2023-05-19T00:51:57.509Z,77.12
2023-05-19T00:52:57.521Z,80.26
2023-05-19T00:53:57.508Z,77.18
2023-05-19T00:54:57.506Z,80.39
2023-05-19T00:55:57.534Z,82.45
2023-05-19T00:56:57.520Z,80.90
2023-05-19T00:57:57.545Z,75.42
2023-05-19T00:58:57.557Z,80.71
2023-05-19T00:59:57.577Z,81.62
2023-05-19T01:00:57.634Z,80.31
2023-05-19T01:01:57.608Z,78.60
2023-05-19T01:02:57.732Z,81.07
2023-05-19T01:03:57.658Z,83.03
2023-05-19T01:04:57.644Z,79.57
2023-05-19T01:05:57.661Z,81.50
2023-05-19T01:06:57.695Z,78.69
2023-05-19T01:07:57.699Z,77.44
2023-05-19T01:08:57.740Z,80.07
2023-05-19T01:09:57.736Z,81.45
2023-05-19T01:10:57.763Z,81.37
2023-05-19T01:11:57.780Z,84.15
2023-05-19T01:12:57.802Z,82.21
2023-05-19T01:13:57.821Z,79.48
2023-05-19T01:14:57.866Z,80.76
2023-05-19T01:15:57.902Z,80.19
2023-05-19T01:16:57.874Z,82.01
2023-05-19T01:17:57.898Z,81.03
2023-05-19T01:18:57.906Z,81.32
2023-05-19T01:19:57.900Z,81.65
2023-05-19T01:20:57.913Z,83.47
2023-05-19T01:21:57.917Z,81.10
2023-05-19T01:22:57.927Z,78.98
2023-05-19T01:23:57.955Z,82.55
2023-05-19T01:24:57.966Z,84.25
2023-05-19T01:25:57.971Z,83.42
2023-05-19T01:26:58.009Z,82.29
2023-05-19T01:27:58.035Z,82.65
2023-05-19T01:28:58.040Z,84.30
2023-05-19T01:29:58.042Z,82.60
2023-05-19T01:30:58.071Z,83.05
2023-05-19T01:31:58.167Z,82.59
2023-05-19T01:32:58.142Z,82.30
2023-05-19T01:33:58.102Z,80.95
2023-05-19T01:34:58.132Z,80.83
2023-05-19T01:35:58.165Z,81.81
2023-05-19T01:36:58.151Z,82.55
2023-05-19T01:37:58.171Z,82.81
2023-05-19T01:38:58.181Z,79.21
2023-05-19T01:39:58.185Z,82.46
2023-05-19T01:40:58.223Z,82.16
2023-05-19T01:41:58.219Z,83.00
2023-05-19T01:42:58.235Z,84.27
2023-05-19T01:43:58.235Z,82.44
2023-05-19T01:44:58.247Z,84.85
2023-05-19T01:45:58.286Z,84.03
2023-05-19T01:46:58.248Z,81.56
2023-05-19T01:47:58.339Z,84.59
2023-05-19T01:48:58.276Z,84.49
2023-05-19T01:49:58.289Z,83.52
2023-05-19T01:50:58.313Z,84.03
2023-05-19T01:51:58.287Z,83.28
2023-05-19T01:52:58.294Z,85.71
2023-05-19T01:53:58.310Z,83.61
2023-05-19T01:54:58.335Z,83.88
2023-05-19T01:55:58.389Z,82.87
2023-05-19T01:56:58.345Z,84.02
2023-05-19T01:57:58.348Z,81.47
2023-05-19T01:58:58.352Z,82.37
2023-05-19T01:59:58.375Z,88.19
2023-05-19T02:00:58.414Z,84.29
2023-05-19T02:01:58.423Z,89.21
2023-05-19T02:02:58.473Z,83.96
2023-05-19T02:03:58.496Z,84.72
2023-05-19T02:04:58.521Z,85.19
2023-05-19T02:05:58.535Z,82.93
2023-05-19T02:06:58.539Z,86.97
2023-05-19T02:07:58.542Z,86.35
2023-05-19T02:08:58.578Z,86.12
2023-05-19T02:09:58.577Z,84.15
2023-05-19T02:10:58.621Z,86.56
2023-05-19T02:11:58.602Z,88.22
2023-05-19T02:12:58.611Z,86.16
2023-05-19T02:13:58.614Z,86.04
2023-05-19T02:14:58.619Z,83.02
2023-05-19T02:15:58.717Z,87.38
2023-05-19T02:16:58.644Z,83.55
2023-05-19T02:17:58.692Z,86.07
2023-05-19T02:18:58.682Z,82.03
2023-05-19T02:19:58.660Z,83.86
2023-05-19T02:20:58.687Z,83.30
2023-05-19T02:21:58.682Z,84.58
2023-05-19T02:22:58.693Z,82.86
2023-05-19T02:23:58.709Z,86.22
2023-05-19T02:24:58.698Z,89.80
2023-05-19T02:25:58.729Z,88.89
2023-05-19T02:26:58.758Z,87.84
2023-05-19T02:27:58.737Z,87.62
2023-05-19T02:28:58.708Z,85.74
2023-05-19T02:29:58.721Z,85.68
2023-05-19T02:30:58.711Z,87.92
2023-05-19T02:31:58.780Z,82.15
2023-05-19T02:32:58.735Z,83.81
2023-05-19T02:33:58.707Z,85.09
2023-05-19T02:34:58.712Z,87.13
2023-05-19T02:35:58.708Z,86.73
2023-05-19T02:36:58.714Z,88.14
2023-05-19T02:37:58.709Z,89.13
2023-05-19T02:38:58.711Z,87.97
2023-05-19T02:39:58.699Z,89.36
2023-05-19T02:40:58.725Z,85.78
2023-05-19T02:41:58.695Z,86.60
2023-05-19T02:42:58.711Z,89.01
2023-05-19T02:43:58.706Z,86.41
2023-05-19T02:44:58.690Z,88.29
2023-05-19T02:45:58.883Z,89.33
2023-05-19T02:46:58.730Z,88.48
2023-05-19T02:47:58.860Z,88.96
2023-05-19T02:48:58.776Z,88.62
2023-05-19T02:49:58.771Z,87.60
2023-05-19T02:50:58.771Z,86.56
2023-05-19T02:51:58.781Z,87.85
2023-05-19T02:52:58.786Z,88.90
2023-05-19T02:53:58.809Z,88.80
2023-05-19T02:54:58.805Z,86.46
2023-05-19T02:55:58.814Z,89.99
2023-05-19T02:56:58.822Z,90.76
2023-05-19T02:57:58.834Z,87.68
2023-05-19T02:58:58.855Z,91.07
2023-05-19T02:59:58.856Z,87.93
2023-05-19T03:00:58.853Z,91.31
2023-05-19T03:01:58.912Z,88.11
2023-05-19T03:02:58.914Z,91.81
2023-05-19T03:03:58.972Z,88.89
2023-05-19T03:04:58.906Z,88.69
2023-05-19T03:05:58.906Z,90.74
2023-05-19T03:06:58.906Z,91.59
2023-05-19T03:07:58.937Z,88.52
2023-05-19T03:08:58.913Z,89.21
2023-05-19T03:09:58.920Z,87.53
2023-05-19T03:10:58.931Z,88.82
2023-05-19T03:11:58.943Z,90.25
2023-05-19T03:12:58.956Z,88.27
2023-05-19T03:13:58.952Z,90.35
2023-05-19T03:14:58.949Z,90.61
2023-05-19T03:15:59.074Z,90.83
2023-05-19T03:16:59.036Z,90.54
2023-05-19T03:17:59.028Z,92.83
2023-05-19T03:18:59.068Z,91.64
2023-05-19T03:19:59.055Z,90.42
2023-05-19T03:20:59.082Z,89.73
2023-05-19T03:21:59.092Z,87.98
2023-05-19T03:22:59.112Z,91.92
2023-05-19T03:23:59.143Z,90.21
2023-05-19T03:24:59.149Z,91.59
2023-05-19T03:25:59.185Z,88.25
2023-05-19T03:26:59.216Z,90.93
2023-05-19T03:27:59.237Z,88.49
2023-05-19T03:28:59.259Z,89.15
2023-05-19T03:29:59.282Z,90.87
2023-05-19T03:30:59.307Z,91.84
2023-05-19T03:31:59.342Z,87.68
2023-05-19T03:32:59.396Z,89.53
2023-05-19T03:33:59.389Z,92.14
2023-05-19T03:34:59.392Z,90.83
2023-05-19T03:35:59.426Z,92.52
2023-05-19T03:36:59.450Z,89.16
2023-05-19T03:37:59.457Z,89.57
2023-05-19T03:38:59.482Z,88.52
2023-05-19T03:39:59.501Z,88.90
2023-05-19T03:40:59.540Z,90.65
2023-05-19T03:41:59.555Z,88.62
2023-05-19T03:42:59.578Z,89.07
2023-05-19T03:43:59.608Z,89.03
2023-05-19T03:44:59.634Z,93.36
2023-05-19T03:45:59.701Z,91.98
2023-05-19T03:46:59.692Z,90.81
2023-05-19T03:47:59.747Z,91.97
2023-05-19T03:48:59.733Z,92.06
2023-05-19T03:49:59.761Z,94.11
2023-05-19T03:50:59.790Z,91.05
2023-05-19T03:51:59.820Z,87.93
2023-05-19T03:52:59.833Z,87.42
2023-05-19T03:53:59.851Z,90.40
2023-05-19T03:54:59.879Z,90.77
2023-05-19T03:55:59.906Z,91.29
2023-05-19T03:56:59.926Z,92.34
2023-05-19T03:57:59.949Z,90.03
2023-05-19T03:58:59.981Z,88.98
2023-05-19T04:00:00.024Z,89.03
2023-05-19T04:01:00.026Z,87.35
2023-05-19T04:02:00.095Z,92.43
2023-05-19T04:03:00.262Z,91.02
2023-05-19T04:04:00.185Z,93.07
2023-05-19T04:05:00.142Z,89.30
2023-05-19T04:06:00.186Z,92.07
2023-05-19T04:07:00.225Z,90.99
2023-05-19T04:08:00.230Z,91.93
2023-05-19T04:09:00.265Z,89.39
2023-05-19T04:10:00.319Z,90.19
2023-05-19T04:11:00.341Z,92.67
2023-05-19T04:12:00.355Z,90.94
2023-05-19T04:13:00.392Z,89.77
2023-05-19T04:14:00.415Z,92.06
2023-05-19T04:15:00.451Z,89.64
2023-05-19T04:16:00.465Z,91.60
2023-05-19T04:17:00.490Z,90.17
2023-05-19T04:18:00.541Z,90.32
2023-05-19T04:19:00.586Z,89.90
2023-05-19T04:20:00.554Z,90.17
2023-05-19T04:21:00.596Z,91.48
2023-05-19T04:22:00.593Z,90.66
2023-05-19T04:23:00.599Z,91.17
2023-05-19T04:24:00.612Z,89.06
2023-05-19T04:25:00.631Z,92.11
2023-05-19T04:26:00.687Z,91.41
2023-05-19T04:27:00.677Z,89.85
2023-05-19T04:28:00.727Z,89.85
2023-05-19T04:29:00.728Z,88.21
2023-05-19T04:30:00.743Z,88.14
2023-05-19T04:31:00.788Z,92.50
2023-05-19T04:32:00.788Z,88.40
2023-05-19T04:33:00.820Z,86.44
2023-05-19T04:34:00.837Z,87.16
2023-05-19T04:35:00.853Z,87.67
2023-05-19T04:36:00.912Z,88.25
2023-05-19T04:37:00.894Z,88.34
2023-05-19T04:38:00.948Z,89.78
2023-05-19T04:39:00.944Z,86.22
2023-05-19T04:40:00.960Z,86.62
2023-05-19T04:41:00.986Z,88.00
2023-05-19T04:42:01.031Z,87.90
2023-05-19T04:43:01.143Z,87.99
2023-05-19T04:44:01.064Z,84.67
2023-05-19T04:45:01.076Z,87.14
2023-05-19T04:46:01.140Z,86.99
2023-05-19T04:47:01.166Z,86.24
2023-05-19T04:48:01.179Z,88.32
2023-05-19T04:49:01.160Z,86.96
2023-05-19T04:50:01.192Z,87.05
2023-05-19T04:51:01.184Z,84.57
2023-05-19T04:52:01.222Z,84.22
2023-05-19T04:53:01.220Z,86.34
2023-05-19T04:54:01.250Z,85.49
2023-05-19T04:55:01.273Z,84.83
2023-05-19T04:56:01.310Z,87.31
2023-05-19T04:57:01.293Z,84.03
2023-05-19T04:58:01.286Z,88.35
2023-05-19T04:59:01.293Z,88.34
2023-05-19T05:00:01.307Z,88.37
2023-05-19T05:01:01.303Z,86.69
2023-05-19T05:02:01.371Z,90.18
2023-05-19T05:03:01.411Z,85.89
2023-05-19T05:04:01.371Z,88.26
2023-05-19T05:05:01.334Z,88.44
2023-05-19T05:06:01.381Z,86.12
2023-05-19T05:07:01.409Z,89.80
2023-05-19T05:08:01.378Z,85.60
2023-05-19T05:09:01.375Z,86.48
2023-05-19T05:10:01.382Z,87.68
2023-05-19T05:11:01.409Z,86.33
2023-05-19T05:12:01.411Z,90.81
2023-05-19T05:13:01.424Z,86.90
2023-05-19T05:14:01.431Z,85.71
2023-05-19T05:15:01.450Z,90.44
2023-05-19T05:16:01.498Z,89.18
2023-05-19T05:17:01.448Z,87.22
2023-05-19T05:18:01.462Z,87.99
2023-05-19T05:19:01.470Z,88.45
2023-05-19T05:20:01.479Z,83.72
2023-05-19T05:21:01.523Z,85.72
2023-05-19T05:22:01.418Z,87.26
2023-05-19T05:23:01.403Z,87.54
2023-05-19T05:24:01.407Z,90.90
2023-05-19T05:25:01.437Z,87.62
2023-05-19T05:26:01.383Z,86.81
2023-05-19T05:27:01.404Z,86.16
2023-05-19T05:28:01.407Z,89.09
2023-05-19T05:29:01.427Z,89.71
2023-05-19T05:30:01.439Z,88.39
2023-05-19T05:31:01.444Z,85.65
2023-05-19T05:32:01.500Z,83.44
2023-05-19T05:33:01.620Z,86.06
2023-05-19T05:34:01.511Z,83.05
2023-05-19T05:35:01.555Z,87.97
2023-05-19T05:36:01.613Z,86.53
2023-05-19T05:37:01.591Z,81.36
2023-05-19T05:38:01.638Z,83.54
2023-05-19T05:39:01.626Z,85.87
2023-05-19T05:40:01.657Z,84.60
2023-05-19T05:41:01.697Z,84.06
2023-05-19T05:42:01.698Z,84.77
2023-05-19T05:43:01.726Z,82.99
2023-05-19T05:44:01.732Z,79.33
2023-05-19T05:45:01.762Z,80.59
2023-05-19T05:46:01.875Z,85.66
2023-05-19T05:47:01.785Z,88.25
2023-05-19T05:48:01.826Z,83.65
2023-05-19T05:49:01.802Z,84.10
2023-05-19T05:50:01.802Z,85.94
2023-05-19T05:51:01.817Z,82.38
2023-05-19T05:52:06.191Z,86.40
2023-05-19T05:53:01.817Z,86.54
2023-05-19T05:54:01.818Z,86.41
2023-05-19T05:55:01.827Z,87.03
2023-05-19T05:56:01.829Z,83.49
2023-05-19T05:57:01.808Z,83.99
2023-05-19T05:58:01.805Z,83.70
2023-05-19T05:59:01.788Z,82.94
2023-05-19T06:00:01.765Z,84.20
2023-05-19T06:01:01.756Z,85.96
2023-05-19T06:02:01.809Z,83.90
2023-05-19T06:03:01.898Z,84.13
2023-05-19T06:04:01.761Z,85.15
2023-05-19T06:05:01.834Z,83.34
2023-05-19T06:06:01.783Z,85.59
2023-05-19T06:07:01.778Z,83.95
2023-05-19T06:08:01.730Z,83.26
2023-05-19T06:09:01.733Z,78.66
2023-05-19T06:10:01.696Z,83.92
2023-05-19T06:11:01.710Z,84.67
2023-05-19T06:12:01.678Z,83.03
2023-05-19T06:13:01.668Z,85.59
2023-05-19T06:14:01.693Z,82.18
2023-05-19T06:15:01.673Z,80.15
2023-05-19T06:16:02.283Z,82.22
2023-05-19T06:17:01.676Z,80.60
2023-05-19T06:18:01.720Z,79.54
2023-05-19T06:19:01.652Z,82.58
2023-05-19T06:20:01.614Z,78.45
2023-05-19T06:21:01.621Z,78.32
2023-05-19T06:22:01.621Z,81.10
2023-05-19T06:23:01.597Z,79.03
2023-05-19T06:24:01.589Z,75.77
2023-05-19T06:25:01.607Z,77.68
2023-05-19T06:26:01.593Z,78.51
2023-05-19T06:27:01.573Z,82.14
2023-05-19T06:28:01.566Z,80.79
2023-05-19T06:29:01.557Z,81.97
2023-05-19T06:30:01.561Z,81.07
2023-05-19T06:31:01.565Z,80.01
2023-05-19T06:32:01.544Z,83.03
2023-05-19T06:33:01.568Z,80.86
2023-05-19T06:34:01.535Z,79.90
2023-05-19T06:35:01.528Z,80.69
2023-05-19T06:36:01.511Z,79.62
2023-05-19T06:37:01.511Z,75.14
2023-05-19T06:38:01.498Z,78.49
2023-05-19T06:39:02.830Z,80.19
2023-05-19T06:40:01.489Z,79.91
2023-05-19T06:41:01.478Z,80.27
2023-05-19T06:42:01.478Z,79.83
2023-05-19T06:43:01.485Z,76.91
2023-05-19T06:44:01.482Z,73.65
2023-05-19T06:45:01.491Z,79.35
2023-05-19T06:46:01.458Z,75.50
2023-05-19T06:47:01.524Z,76.10
2023-05-19T06:48:01.478Z,76.98
2023-05-19T06:49:01.524Z,74.48
2023-05-19T06:50:01.435Z,77.91
2023-05-19T06:51:01.462Z,79.56
2023-05-19T06:52:01.429Z,76.74
2023-05-19T06:53:01.434Z,80.54
2023-05-19T06:54:01.414Z,77.52
2023-05-19T06:55:01.426Z,78.53
2023-05-19T06:56:01.407Z,80.92
2023-05-19T06:57:01.400Z,81.20
2023-05-19T06:58:01.398Z,82.34
2023-05-19T06:59:01.388Z,74.98
2023-05-19T07:00:01.411Z,83.14
2023-05-19T07:01:01.377Z,80.55
2023-05-19T07:02:01.413Z,81.41
2023-05-19T07:03:01.539Z,79.28
2023-05-19T07:04:01.487Z,80.89
2023-05-19T07:05:01.413Z,81.47
2023-05-19T07:06:01.406Z,77.56
2023-05-19T07:07:01.414Z,79.39
2023-05-19T07:08:01.421Z,77.96
2023-05-19T07:09:01.438Z,82.70
2023-05-19T07:10:01.431Z,79.82
2023-05-19T07:11:01.457Z,83.15
2023-05-19T07:12:01.429Z,77.88
2023-05-19T07:13:01.460Z,79.93
2023-05-19T07:14:01.463Z,80.73
2023-05-19T07:15:01.528Z,77.88
2023-05-19T07:16:01.567Z,82.14
2023-05-19T07:17:01.491Z,79.74
2023-05-19T07:18:01.565Z,82.33
2023-05-19T07:19:01.525Z,79.74
2023-05-19T07:20:01.538Z,81.33
2023-05-19T07:21:01.489Z,83.26
2023-05-19T07:22:01.475Z,80.60
2023-05-19T07:23:01.580Z,80.11
2023-05-19T07:24:01.485Z,81.16
2023-05-19T07:25:01.506Z,81.81
2023-05-19T07:26:01.509Z,83.75
2023-05-19T07:27:01.515Z,82.56
2023-05-19T07:28:01.512Z,82.23
2023-05-19T07:29:01.518Z,81.55
2023-05-19T07:30:01.516Z,80.37
2023-05-19T07:31:01.542Z,84.85
2023-05-19T07:32:01.539Z,82.56
2023-05-19T07:33:01.546Z,82.03
2023-05-19T07:34:01.595Z,80.79
2023-05-19T07:35:01.575Z,81.53
2023-05-19T07:36:01.553Z,84.24
2023-05-19T07:37:01.559Z,78.99
2023-05-19T07:38:01.556Z,80.95
2023-05-19T07:39:01.616Z,81.00
2023-05-19T07:40:01.561Z,81.75
2023-05-19T07:41:01.606Z,82.58
2023-05-19T07:42:01.574Z,83.18
2023-05-19T07:43:01.570Z,81.60
2023-05-19T07:44:01.581Z,82.55
2023-05-19T07:45:01.634Z,82.16
2023-05-19T07:46:01.623Z,79.62
2023-05-19T07:47:01.601Z,77.92
2023-05-19T07:48:01.610Z,79.40
2023-05-19T07:49:01.589Z,80.89
2023-05-19T07:50:01.632Z,78.06
2023-05-19T07:51:01.613Z,78.91
2023-05-19T07:52:01.649Z,79.53
2023-05-19T07:53:01.655Z,81.01
2023-05-19T07:54:01.658Z,77.40
2023-05-19T07:55:01.689Z,79.89
2023-05-19T07:56:01.699Z,79.13
2023-05-19T07:57:01.737Z,78.13
2023-05-19T07:58:01.773Z,79.24
2023-05-19T07:59:01.790Z,79.31
2023-05-19T08:00:01.842Z,78.39
2023-05-19T08:01:01.885Z,78.90
2023-05-19T08:02:01.963Z,78.00
2023-05-19T08:03:02.038Z,80.28
2023-05-19T08:04:02.208Z,77.16
2023-05-19T08:05:02.010Z,79.10
2023-05-19T08:06:02.013Z,80.89
2023-05-19T08:07:02.063Z,79.35
2023-05-19T08:08:02.060Z,82.74
2023-05-19T08:09:02.084Z,78.55
2023-05-19T08:10:02.134Z,76.33
2023-05-19T08:11:02.217Z,79.05
2023-05-19T08:12:02.173Z,79.83
2023-05-19T08:13:02.167Z,80.55
2023-05-19T08:14:02.203Z,81.60
2023-05-19T08:15:02.249Z,80.01
2023-05-19T08:16:02.348Z,78.48
2023-05-19T08:17:02.319Z,77.84
2023-05-19T08:18:02.447Z,77.00
2023-05-19T08:19:02.394Z,81.70
2023-05-19T08:20:02.283Z,81.53
2023-05-19T08:21:02.273Z,78.50
2023-05-19T08:22:02.277Z,81.31
2023-05-19T08:23:02.254Z,78.58
2023-05-19T08:24:02.247Z,77.32
2023-05-19T08:25:02.271Z,78.75
2023-05-19T08:26:02.269Z,79.29
2023-05-19T08:27:02.231Z,80.99
2023-05-19T08:28:02.258Z,79.16
2023-05-19T08:29:02.227Z,77.64
2023-05-19T08:30:02.229Z,76.00
2023-05-19T08:31:02.291Z,80.39
2023-05-19T08:32:02.222Z,77.77
2023-05-19T08:33:02.302Z,76.03
2023-05-19T08:34:02.225Z,77.60
2023-05-19T08:35:02.192Z,76.39
2023-05-19T08:36:02.189Z,75.80
2023-05-19T08:37:02.202Z,76.51
2023-05-19T08:38:02.246Z,76.74
2023-05-19T08:39:02.277Z,77.07
2023-05-19T08:40:02.326Z,75.77
2023-05-19T08:41:02.412Z,76.39
2023-05-19T08:42:02.401Z,76.98
2023-05-19T08:43:02.459Z,76.07
2023-05-19T08:44:02.449Z,77.37
2023-05-19T08:45:02.524Z,76.27
2023-05-19T08:46:02.553Z,75.11
2023-05-19T08:47:02.663Z,73.35
2023-05-19T08:48:02.657Z,78.06
2023-05-19T08:49:02.651Z,78.53
2023-05-19T08:50:02.689Z,76.83
2023-05-19T08:51:02.739Z,77.04
2023-05-19T08:52:02.805Z,76.82
2023-05-19T08:53:02.906Z,76.25
2023-05-19T08:54:02.918Z,74.39
2023-05-19T08:55:02.982Z,75.20
2023-05-19T08:56:03.050Z,77.10
2023-05-19T08:57:03.143Z,74.26
2023-05-19T08:58:03.133Z,73.05
2023-05-19T08:59:03.188Z,73.60
2023-05-19T09:00:03.231Z,74.08
2023-05-19T09:01:03.328Z,74.89
2023-05-19T09:02:03.388Z,74.12
2023-05-19T09:04:03.496Z,73.13
2023-05-19T09:05:03.416Z,73.18
2023-05-19T09:06:03.394Z,70.75
2023-05-19T09:07:03.389Z,72.59
2023-05-19T09:08:03.383Z,70.74
2023-05-19T09:09:03.381Z,69.47
2023-05-19T09:10:03.348Z,72.18
2023-05-19T09:11:03.339Z,70.90
2023-05-19T09:12:03.335Z,72.34
2023-05-19T09:13:03.331Z,70.55
2023-05-19T09:14:03.319Z,70.73
2023-05-19T09:15:03.316Z,66.58
2023-05-19T09:16:03.367Z,69.84
2023-05-19T09:17:03.425Z,71.94
2023-05-19T09:18:03.330Z,71.58
2023-05-19T09:19:03.349Z,70.21
2023-05-19T09:20:03.274Z,69.75
2023-05-19T09:21:03.506Z,71.61
2023-05-19T09:22:03.299Z,70.49
2023-05-19T09:23:03.250Z,71.07
2023-05-19T09:24:03.252Z,68.17
2023-05-19T09:25:03.232Z,66.91
2023-05-19T09:26:03.225Z,68.60
2023-05-19T09:27:03.290Z,70.31
2023-05-19T09:28:03.236Z,69.44
2023-05-19T09:29:03.207Z,66.80
2023-05-19T09:30:03.209Z,68.29
2023-05-19T09:31:03.233Z,62.46
2023-05-19T09:32:03.257Z,64.83
2023-05-19T09:33:03.198Z,69.33
2023-05-19T09:34:03.169Z,66.60
2023-05-19T09:35:03.161Z,65.27
2023-05-19T09:36:03.155Z,66.98
2023-05-19T09:37:03.152Z,68.30
2023-05-19T09:38:03.146Z,67.21
2023-05-19T09:39:03.136Z,67.21
2023-05-19T09:40:03.149Z,68.61
2023-05-19T09:41:03.130Z,67.93
2023-05-19T09:42:03.110Z,69.85
2023-05-19T09:43:03.098Z,70.48
2023-05-19T09:44:03.090Z,68.89
2023-05-19T09:45:03.144Z,65.45
2023-05-19T09:46:03.249Z,66.14
2023-05-19T09:47:03.330Z,65.26
2023-05-19T09:48:03.393Z,68.58
2023-05-19T09:49:03.355Z,69.02
2023-05-19T09:50:03.404Z,70.21
2023-05-19T09:51:03.452Z,66.07
2023-05-19T09:52:03.505Z,67.82
2023-05-19T09:53:03.535Z,70.22
2023-05-19T09:54:03.569Z,68.00
2023-05-19T09:55:03.615Z,66.52
2023-05-19T09:56:03.756Z,67.87
2023-05-19T09:57:03.749Z,66.31
2023-05-19T09:58:03.775Z,65.06
2023-05-19T09:59:03.846Z,69.86
2023-05-19T10:00:03.931Z,66.91
2023-05-19T10:01:03.972Z,69.54
2023-05-19T10:02:04.046Z,69.58
2023-05-19T10:03:04.093Z,69.65
2023-05-19T10:04:05.976Z,66.36
2023-05-19T10:05:04.243Z,69.02
2023-05-19T10:06:04.249Z,68.14
2023-05-19T10:07:04.351Z,66.05
2023-05-19T10:08:04.375Z,66.65
2023-05-19T10:09:04.434Z,69.37
2023-05-19T10:10:04.508Z,66.17
2023-05-19T10:11:04.562Z,69.14
2023-05-19T10:12:04.651Z,68.78
2023-05-19T10:13:04.732Z,68.20
2023-05-19T10:14:04.765Z,67.54
2023-05-19T10:15:04.849Z,66.32
2023-05-19T10:16:04.903Z,62.88
2023-05-19T10:17:05.005Z,70.14
2023-05-19T10:18:04.993Z,68.67
2023-05-19T10:19:05.149Z,67.98
2023-05-19T10:20:05.101Z,68.51
2023-05-19T10:21:05.169Z,65.56
2023-05-19T10:22:05.245Z,70.20
2023-05-19T10:23:05.288Z,68.79
2023-05-19T10:24:05.350Z,70.76
2023-05-19T10:25:05.410Z,62.54
2023-05-19T10:26:05.458Z,70.28
2023-05-19T10:27:05.595Z,66.84
2023-05-19T10:28:05.598Z,67.89
2023-05-19T10:29:05.655Z,68.13
2023-05-19T10:30:05.746Z,66.46
2023-05-19T10:31:05.772Z,66.60
2023-05-19T10:32:05.924Z,64.16
2023-05-19T10:33:05.960Z,66.70
2023-05-19T10:34:05.995Z,68.78
2023-05-19T10:35:06.013Z,67.57
2023-05-19T10:36:06.084Z,66.31
2023-05-19T10:37:06.158Z,65.72
2023-05-19T10:38:06.205Z,62.73
2023-05-19T10:39:06.272Z,69.09
2023-05-19T10:40:06.326Z,62.42
2023-05-19T10:41:06.402Z,65.72
2023-05-19T10:42:06.453Z,67.78
2023-05-19T10:43:06.501Z,65.29
2023-05-19T10:44:06.540Z,64.43
2023-05-19T10:45:06.622Z,64.16
2023-05-19T10:46:06.658Z,66.62
2023-05-19T10:47:06.715Z,62.06
2023-05-19T10:48:06.780Z,66.23
2023-05-19T10:49:06.785Z,64.52
2023-05-19T10:50:06.888Z,66.82
2023-05-19T10:51:06.984Z,63.78
2023-05-19T10:52:06.932Z,60.35
2023-05-19T10:53:06.959Z,63.07
2023-05-19T10:54:07.011Z,64.03
2023-05-19T10:55:07.053Z,63.59
2023-05-19T10:56:07.102Z,63.40
2023-05-19T10:57:07.203Z,64.20
2023-05-19T10:58:07.209Z,63.65
2023-05-19T10:59:07.287Z,65.90
2023-05-19T11:00:07.340Z,66.31
2023-05-19T11:01:07.408Z,65.73
2023-05-19T11:02:07.517Z,67.65
2023-05-19T11:03:07.566Z,66.47
2023-05-19T11:04:07.705Z,64.34
2023-05-19T11:05:07.742Z,67.54
2023-05-19T11:06:07.690Z,66.71
2023-05-19T11:07:07.765Z,59.44
2023-05-19T11:08:07.769Z,63.19
2023-05-19T11:09:07.817Z,62.11
2023-05-19T11:10:07.861Z,64.01
2023-05-19T11:11:07.914Z,63.11
2023-05-19T11:12:08.031Z,62.03
2023-05-19T11:13:07.992Z,59.88
2023-05-19T11:14:08.060Z,64.78
2023-05-19T11:15:08.086Z,65.17
2023-05-19T11:16:08.148Z,63.53
2023-05-19T11:17:08.224Z,64.73
2023-05-19T11:18:08.195Z,63.61
2023-05-19T11:19:08.208Z,64.48
2023-05-19T11:20:08.210Z,65.24
2023-05-19T11:21:08.289Z,62.47
2023-05-19T11:22:08.277Z,60.67
2023-05-19T11:23:08.593Z,61.20
2023-05-19T11:24:08.346Z,64.43
2023-05-19T11:25:08.386Z,64.12
2023-05-19T11:26:08.443Z,64.07
2023-05-19T11:27:08.494Z,65.25
2023-05-19T11:28:08.536Z,67.17
2023-05-19T11:29:08.582Z,66.21
2023-05-19T11:30:08.635Z,64.32
2023-05-19T11:31:08.693Z,64.66
2023-05-19T11:32:08.781Z,63.23
2023-05-19T11:33:08.890Z,63.19
2023-05-19T11:34:08.890Z,64.45
2023-05-19T11:35:09.796Z,63.77
2023-05-19T11:36:08.991Z,62.54
2023-05-19T11:37:09.031Z,63.38
2023-05-19T11:38:09.083Z,62.09
2023-05-19T11:39:09.155Z,63.66
2023-05-19T11:40:09.274Z,63.46
2023-05-19T11:41:09.225Z,65.11
2023-05-19T11:42:09.255Z,64.58
2023-05-19T11:43:09.265Z,65.31
2023-05-19T11:44:09.294Z,67.01
2023-05-19T11:45:09.327Z,68.41
2023-05-19T11:46:09.402Z,64.50
2023-05-19T11:47:09.523Z,67.21
2023-05-19T11:48:09.537Z,68.11
2023-05-19T11:49:09.537Z,64.56
2023-05-19T11:50:09.595Z,65.17
2023-05-19T11:51:09.646Z,67.21
2023-05-19T11:52:09.691Z,64.53
2023-05-19T11:53:09.752Z,66.82
2023-05-19T11:54:09.784Z,67.24
2023-05-19T11:55:09.843Z,67.71
2023-05-19T11:56:09.890Z,66.54
2023-05-19T11:57:09.959Z,64.39
2023-05-19T11:58:09.976Z,66.15
2023-05-19T11:59:10.028Z,67.62
2023-05-19T12:00:10.109Z,67.27
2023-05-19T12:01:10.101Z,67.83
2023-05-19T12:02:10.156Z,67.25
2023-05-19T12:03:10.331Z,66.42
2023-05-19T12:04:10.206Z,64.06
2023-05-19T12:05:10.274Z,61.78
2023-05-19T12:06:10.328Z,64.67
2023-05-19T12:07:10.372Z,68.04
2023-05-19T12:08:10.417Z,67.20
2023-05-19T12:09:10.454Z,64.97
2023-05-19T12:10:10.574Z,62.62
2023-05-19T12:11:10.540Z,65.84
2023-05-19T12:12:10.614Z,64.93
2023-05-19T12:13:10.921Z,67.51
2023-05-19T12:14:10.712Z,66.02
2023-05-19T12:15:10.793Z,65.75
2023-05-19T12:16:10.841Z,63.06
2023-05-19T12:17:10.876Z,64.39
2023-05-19T12:18:10.982Z,63.19
2023-05-19T12:19:10.971Z,68.53
2023-05-19T12:20:11.028Z,67.90
2023-05-19T12:21:11.105Z,66.60
2023-05-19T12:22:11.124Z,64.09
2023-05-19T12:23:11.176Z,63.53
2023-05-19T12:24:11.232Z,66.44
2023-05-19T12:25:11.285Z,62.86
2023-05-19T12:26:11.333Z,61.57
2023-05-19T12:27:11.393Z,65.20
2023-05-19T12:28:11.418Z,64.49
2023-05-19T12:29:11.472Z,62.39
2023-05-19T12:30:11.520Z,66.54
2023-05-19T12:31:11.690Z,61.85
2023-05-19T12:32:11.682Z,62.87
2023-05-19T12:33:11.727Z,63.81
2023-05-19T12:34:11.736Z,65.83
2023-05-19T12:35:11.773Z,66.99
2023-05-19T12:36:11.833Z,63.53
2023-05-19T12:37:11.903Z,66.30
2023-05-19T12:38:11.934Z,65.27
2023-05-19T12:39:11.972Z,62.66
2023-05-19T12:40:12.030Z,61.17
2023-05-19T12:41:12.081Z,63.73
2023-05-19T12:42:12.151Z,61.08
2023-05-19T12:43:12.173Z,62.67
2023-05-19T12:44:12.214Z,67.09
2023-05-19T12:45:12.331Z,65.00
2023-05-19T12:46:12.434Z,66.28
2023-05-19T12:47:12.360Z,64.63
2023-05-19T12:48:12.644Z,61.31
2023-05-19T12:49:12.460Z,67.85
2023-05-19T12:50:12.517Z,63.94
2023-05-19T12:51:12.558Z,61.83
2023-05-19T12:52:13.176Z,62.74
2023-05-19T12:53:12.666Z,61.96
2023-05-19T12:54:12.757Z,61.93